createdAt,value
2022-12-08T00:00:37.062Z,89.02
2022-12-08T00:03:06.843Z,89.27
2022-12-08T00:05:54.888Z,89.49
2022-12-08T00:08:42.639Z,89.16
2022-12-08T00:11:15.452Z,87.42
2022-12-08T00:13:45.391Z,88.58
2022-12-08T00:16:15.164Z,88.65
2022-12-08T00:18:45.277Z,87.74
2022-12-08T00:21:15.064Z,87.90
2022-12-08T00:23:44.810Z,89.15
2022-12-08T00:26:14.579Z,88.66
2022-12-08T00:28:44.799Z,89.28
2022-12-08T00:31:15.112Z,89.79
2022-12-08T00:33:45.288Z,90.80
2022-12-08T00:36:16.280Z,90.31
2022-12-08T00:38:48.334Z,90.67
2022-12-08T00:41:41.691Z,90.91
2022-12-08T00:44:14.401Z,91.26
2022-12-08T00:46:44.558Z,91.29
2022-12-08T00:49:14.294Z,91.37
2022-12-08T00:51:45.279Z,90.78
2022-12-08T00:54:16.640Z,90.32
2022-12-08T00:56:47.313Z,89.73
2022-12-08T00:59:18.596Z,89.78
2022-12-08T01:01:49.756Z,90.15
2022-12-08T01:04:21.456Z,90.08
2022-12-08T01:06:51.876Z,90.16
2022-12-08T01:09:22.094Z,90.27
2022-12-08T01:11:51.844Z,90.11
2022-12-08T01:14:21.597Z,90.01
2022-12-08T01:16:52.424Z,90.07
2022-12-08T01:19:22.279Z,90.48
2022-12-08T01:21:52.060Z,90.31
2022-12-08T01:24:23.106Z,90.29
2022-12-08T01:26:53.898Z,90.49
2022-12-08T01:29:23.854Z,90.37
2022-12-08T01:31:53.654Z,90.45
2022-12-08T01:34:24.331Z,90.12
2022-12-08T01:36:54.035Z,90.19
2022-12-08T01:39:23.809Z,90.32
2022-12-08T01:41:54.525Z,90.27
2022-12-08T01:44:24.187Z,90.96
2022-12-08T01:46:56.335Z,91.34
2022-12-08T01:49:31.255Z,91.43
2022-12-08T01:52:18.753Z,91.82
2022-12-08T01:54:52.932Z,92.00
2022-12-08T01:57:30.533Z,92.43
2022-12-08T02:00:21.916Z,92.53
2022-12-08T02:03:05.001Z,92.78
2022-12-08T02:05:41.961Z,92.75
2022-12-08T02:08:14.152Z,92.86
2022-12-08T02:10:45.950Z,93.12
2022-12-08T02:13:19.490Z,93.09
2022-12-08T02:16:05.492Z,93.21
2022-12-08T02:19:29.621Z,93.24
2022-12-08T02:22:25.515Z,93.11
2022-12-08T02:25:09.093Z,93.92
2022-12-08T02:27:45.377Z,94.00
2022-12-08T02:30:34.013Z,93.64
2022-12-08T02:33:38.104Z,93.73
2022-12-08T02:36:19.875Z,94.07
2022-12-08T02:39:01.569Z,93.93
2022-12-08T02:41:51.620Z,93.42
2022-12-08T02:44:35.871Z,93.44
2022-12-08T02:47:05.833Z,93.42
2022-12-08T02:49:37.133Z,93.31
2022-12-08T02:52:30.434Z,93.62
2022-12-08T02:55:02.932Z,93.62
2022-12-08T02:57:53.750Z,94.09
2022-12-08T03:00:27.140Z,93.96
2022-12-08T03:03:11.194Z,94.15
2022-12-08T03:06:06.808Z,94.53
2022-12-08T03:08:56.399Z,94.78
2022-12-08T03:11:38.241Z,95.05
2022-12-08T03:14:11.983Z,95.59
2022-12-08T03:16:46.635Z,95.78
2022-12-08T03:19:27.267Z,96.23
2022-12-08T03:22:04.261Z,96.18
2022-12-08T03:24:39.234Z,96.42
2022-12-08T03:27:21.699Z,96.65
2022-12-08T03:29:54.451Z,96.83
2022-12-08T03:32:30.258Z,96.86
2022-12-08T03:35:01.819Z,96.02
2022-12-08T03:37:32.078Z,97.09
2022-12-08T03:40:02.065Z,97.38
2022-12-08T03:42:32.425Z,97.35
2022-12-08T03:45:02.572Z,97.70
2022-12-08T03:47:32.354Z,97.70
2022-12-08T03:50:02.538Z,98.05
2022-12-08T03:52:32.373Z,98.06
2022-12-08T03:55:02.215Z,97.76
2022-12-08T03:57:31.929Z,97.84
2022-12-08T04:00:02.106Z,98.22
2022-12-08T04:02:34.429Z,98.33
2022-12-08T04:05:04.824Z,98.58
2022-12-08T04:07:34.613Z,98.61
2022-12-08T04:10:04.538Z,98.63
2022-12-08T04:12:34.472Z,98.76
2022-12-08T04:15:04.176Z,98.83
2022-12-08T04:17:33.872Z,98.92
2022-12-08T04:20:04.901Z,98.91
2022-12-08T04:22:35.072Z,98.97
2022-12-08T04:25:04.941Z,99.06
2022-12-08T04:27:34.665Z,99.24
2022-12-08T04:30:04.599Z,99.16
2022-12-08T04:32:35.074Z,99.28
2022-12-08T04:35:04.899Z,99.34
2022-12-08T04:37:35.429Z,99.42
2022-12-08T04:40:05.935Z,99.36
2022-12-08T04:42:35.846Z,99.30
2022-12-08T04:45:07.439Z,99.38
2022-12-08T04:47:37.498Z,99.39
2022-12-08T04:50:08.443Z,99.45
2022-12-08T04:52:38.593Z,99.38
2022-12-08T04:55:08.825Z,99.44
2022-12-08T04:57:38.678Z,99.60
2022-12-08T05:00:09.106Z,99.74
2022-12-08T05:02:38.868Z,99.71
2022-12-08T05:05:09.059Z,99.72
2022-12-08T05:07:38.953Z,99.59
2022-12-08T05:10:09.848Z,99.92
2022-12-08T05:12:39.605Z,99.92
2022-12-08T05:15:09.769Z,99.82
2022-12-08T05:17:40.634Z,99.63
2022-12-08T05:20:10.938Z,99.74
2022-12-08T05:22:42.589Z,99.73
2022-12-08T05:25:12.738Z,99.92
2022-12-08T05:27:42.474Z,99.80
2022-12-08T05:30:12.727Z,99.97
2022-12-08T05:32:42.612Z,99.99
2022-12-08T05:35:12.691Z,99.99
2022-12-08T05:37:42.403Z,99.99
2022-12-08T05:40:12.925Z,99.99
2022-12-08T05:42:43.135Z,99.99
2022-12-08T05:45:13.050Z,99.99
2022-12-08T05:47:43.066Z,99.99
2022-12-08T05:50:12.894Z,99.99
2022-12-08T05:52:43.641Z,99.99
2022-12-08T05:55:13.863Z,99.99
2022-12-08T05:57:43.695Z,99.99
2022-12-08T06:00:13.865Z,99.99
2022-12-08T06:02:44.354Z,99.99
2022-12-08T06:05:14.201Z,99.99
2022-12-08T06:07:43.995Z,99.99
2022-12-08T06:10:14.514Z,99.99
2022-12-08T06:12:44.196Z,99.99
2022-12-08T06:15:13.978Z,99.99
2022-12-08T06:17:43.667Z,99.99
2022-12-08T06:20:13.671Z,99.99
2022-12-08T06:22:43.350Z,99.99
2022-12-08T06:25:13.323Z,99.99
2022-12-08T06:27:43.012Z,99.99
2022-12-08T06:30:12.917Z,99.99
2022-12-08T06:32:42.951Z,99.99
2022-12-08T06:35:12.989Z,99.99
2022-12-08T06:37:42.914Z,99.99
2022-12-08T06:40:13.095Z,99.99
2022-12-08T06:42:45.148Z,99.99
2022-12-08T06:45:17.163Z,99.99
2022-12-08T06:47:47.675Z,99.99
2022-12-08T06:50:17.382Z,99.99
2022-12-08T06:52:56.962Z,99.99
2022-12-08T06:58:24.533Z,99.99
2022-12-08T07:00:55.122Z,99.99
2022-12-08T07:03:25.060Z,99.99
2022-12-08T07:06:03.457Z,99.99
2022-12-08T07:08:35.762Z,99.99
2022-12-08T07:11:14.146Z,99.99
2022-12-08T07:13:47.118Z,99.99
2022-12-08T07:16:17.345Z,99.99
2022-12-08T07:18:47.446Z,99.99
2022-12-08T07:21:18.979Z,99.99
2022-12-08T07:23:56.049Z,99.99
2022-12-08T07:26:28.213Z,99.99
2022-12-08T07:28:57.914Z,99.99
2022-12-08T07:31:29.604Z,99.99
2022-12-08T07:33:59.972Z,99.99
2022-12-08T07:36:29.891Z,99.99
2022-12-08T07:38:59.691Z,99.99
2022-12-08T07:41:29.435Z,99.99
2022-12-08T07:43:59.187Z,99.99
2022-12-08T07:46:29.318Z,99.99
2022-12-08T07:48:59.936Z,99.99
2022-12-08T07:51:30.033Z,99.99
2022-12-08T07:54:00.730Z,99.99
2022-12-08T07:56:32.097Z,99.99
2022-12-08T07:59:03.744Z,99.99
2022-12-08T08:01:35.773Z,99.99
2022-12-08T08:04:07.368Z,99.99
2022-12-08T08:06:38.999Z,99.99
2022-12-08T08:09:11.550Z,99.99
2022-12-08T08:11:41.808Z,99.99
2022-12-08T08:14:12.447Z,99.99
2022-12-08T08:16:48.224Z,99.99
2022-12-08T08:19:20.214Z,99.99
2022-12-08T08:21:50.139Z,99.99
2022-12-08T08:24:19.948Z,99.99
2022-12-08T08:26:49.646Z,99.99
2022-12-08T08:29:19.352Z,99.99
2022-12-08T08:31:49.059Z,99.99
2022-12-08T08:34:18.788Z,99.99
2022-12-08T08:36:48.539Z,99.99
2022-12-08T08:39:18.575Z,99.99
2022-12-08T08:41:48.258Z,99.99
2022-12-08T08:44:17.934Z,99.99
2022-12-08T08:46:47.724Z,99.99
2022-12-08T08:49:17.551Z,99.99
2022-12-08T08:51:47.957Z,99.99
2022-12-08T08:54:18.022Z,99.99
2022-12-08T08:56:49.335Z,99.99
2022-12-08T08:59:20.304Z,99.99
2022-12-08T09:01:50.526Z,99.99
2022-12-08T09:04:21.395Z,99.99
2022-12-08T09:06:52.066Z,99.99
2022-12-08T09:09:21.854Z,99.99
2022-12-08T09:11:51.599Z,99.99
2022-12-08T09:14:21.667Z,99.99
2022-12-08T09:16:51.841Z,99.99
2022-12-08T09:19:22.181Z,99.99
2022-12-08T09:21:51.886Z,99.99
2022-12-08T09:24:21.583Z,99.99
2022-12-08T09:26:51.463Z,97.39
2022-12-08T09:29:21.666Z,96.93
2022-12-08T09:31:52.360Z,97.42
2022-12-08T09:34:22.392Z,97.42
2022-12-08T09:36:52.401Z,97.61
2022-12-08T09:39:22.421Z,97.63
2022-12-08T09:41:59.005Z,96.79
2022-12-08T09:44:45.955Z,96.94
2022-12-08T09:47:35.531Z,97.11
2022-12-08T09:50:15.689Z,96.94
2022-12-08T09:53:04.200Z,97.03
2022-12-08T09:55:47.879Z,96.65
2022-12-08T09:58:27.701Z,96.51
2022-12-08T10:00:58.683Z,96.74
2022-12-08T10:03:31.161Z,96.43
2022-12-08T10:06:21.281Z,95.59
2022-12-08T10:09:32.405Z,94.83
2022-12-08T10:12:06.578Z,92.98
2022-12-08T10:14:47.625Z,93.04
2022-12-08T10:17:27.471Z,92.06
2022-12-08T10:20:14.083Z,91.23
2022-12-08T10:22:47.739Z,90.77
2022-12-08T10:25:23.186Z,88.94
2022-12-08T10:27:55.976Z,89.17
2022-12-08T10:30:29.010Z,89.68
2022-12-08T10:32:59.185Z,88.89
2022-12-08T10:35:54.496Z,89.43
2022-12-08T10:38:42.764Z,88.78
2022-12-08T10:41:14.631Z,87.24
2022-12-08T10:44:00.943Z,86.57
2022-12-08T10:46:32.396Z,85.38
2022-12-08T10:49:08.071Z,85.21
2022-12-08T10:51:44.855Z,86.60
2022-12-08T10:54:35.430Z,83.40
2022-12-08T10:57:06.261Z,82.38
2022-12-08T10:59:36.332Z,81.50
2022-12-08T11:02:21.784Z,78.63
2022-12-08T11:05:02.871Z,77.37
2022-12-08T11:07:32.935Z,76.09
2022-12-08T11:10:03.004Z,75.24
2022-12-08T11:12:33.338Z,75.61
2022-12-08T11:15:06.963Z,73.65
2022-12-08T11:17:45.070Z,75.24
2022-12-08T11:20:15.115Z,75.56
2022-12-08T11:22:47.204Z,74.02
2022-12-08T11:25:25.611Z,71.40
2022-12-08T11:27:59.991Z,71.84
2022-12-08T11:30:37.364Z,68.93
2022-12-08T11:33:19.011Z,68.98
2022-12-08T11:36:01.068Z,72.92
2022-12-08T11:38:32.687Z,67.60
2022-12-08T11:41:19.249Z,67.03
2022-12-08T11:44:01.842Z,66.36
2022-12-08T11:46:53.507Z,68.97
2022-12-08T11:49:36.413Z,66.26
2022-12-08T11:52:44.098Z,69.72
2022-12-08T11:55:40.638Z,68.99
2022-12-08T11:58:24.405Z,64.61
2022-12-08T12:00:54.650Z,63.72
2022-12-08T12:03:37.386Z,66.75
2022-12-08T12:06:38.096Z,66.33
2022-12-08T12:09:32.894Z,65.64
2022-12-08T12:12:45.207Z,67.81
2022-12-08T12:15:46.912Z,72.62
2022-12-08T12:18:41.706Z,65.27
2022-12-08T12:21:31.003Z,66.31
2022-12-08T12:24:22.251Z,65.79
2022-12-08T12:27:02.509Z,64.08
2022-12-08T12:29:55.287Z,67.31
2022-12-08T12:32:28.118Z,65.20
2022-12-08T12:35:01.791Z,66.27
2022-12-08T12:37:41.599Z,65.91
2022-12-08T12:40:23.407Z,63.85
2022-12-08T12:42:59.436Z,65.20
2022-12-08T12:45:34.664Z,63.03
2022-12-08T12:48:04.520Z,62.32
2022-12-08T12:50:39.622Z,65.44
2022-12-08T12:53:19.376Z,65.52
2022-12-08T12:56:05.024Z,64.75
2022-12-08T12:58:37.845Z,61.27
2022-12-08T13:01:10.866Z,64.75
2022-12-08T13:03:41.947Z,64.09
2022-12-08T13:06:15.185Z,62.32
2022-12-08T13:08:54.318Z,59.80
2022-12-08T13:11:26.978Z,62.39
2022-12-08T13:14:05.708Z,57.47
2022-12-08T13:16:40.083Z,60.21
2022-12-08T13:19:17.495Z,61.19
2022-12-08T13:21:48.117Z,59.87
2022-12-08T13:24:30.995Z,61.76
2022-12-08T13:27:06.944Z,59.77
2022-12-08T13:29:38.503Z,59.14
2022-12-08T13:32:11.759Z,56.40
2022-12-08T13:34:50.099Z,54.57
2022-12-08T13:37:59.962Z,60.19
2022-12-08T13:40:33.467Z,58.03
2022-12-08T13:44:02.156Z,59.94
2022-12-08T13:58:39.430Z,55.53
2022-12-08T14:01:09.790Z,57.23
2022-12-08T14:06:57.243Z,58.22
2022-12-08T14:09:30.535Z,60.96
2022-12-08T14:12:07.224Z,56.59
2022-12-08T14:15:03.675Z,55.96
2022-12-08T14:17:40.769Z,53.94
2022-12-08T14:20:13.807Z,56.17
2022-12-08T14:22:44.962Z,54.10
2022-12-08T14:25:19.032Z,54.85
2022-12-08T14:27:50.540Z,53.83
2022-12-08T14:30:29.549Z,53.41
2022-12-08T14:33:01.827Z,54.75
2022-12-08T14:35:38.076Z,56.82
2022-12-08T14:38:17.195Z,52.91
2022-12-08T14:40:48.532Z,53.67
2022-12-08T14:43:18.839Z,53.62
2022-12-08T14:45:54.475Z,53.76
2022-12-08T14:48:37.243Z,53.25
2022-12-08T14:51:22.483Z,55.23
2022-12-08T14:53:57.863Z,50.41
2022-12-08T14:56:41.384Z,54.37
2022-12-08T14:59:17.065Z,58.23
2022-12-08T15:01:48.858Z,50.32
2022-12-08T15:04:24.770Z,50.26
2022-12-08T15:06:59.680Z,54.25
2022-12-08T15:09:37.835Z,53.50
2022-12-08T15:12:15.568Z,55.47
2022-12-08T15:15:25.118Z,53.44
2022-12-08T15:18:13.518Z,49.41
2022-12-08T15:20:45.292Z,55.19
2022-12-08T15:23:34.024Z,51.96
2022-12-08T15:26:06.679Z,53.74
2022-12-08T15:28:36.781Z,48.55
2022-12-08T15:31:06.533Z,47.80
2022-12-08T15:33:36.949Z,54.43
2022-12-08T15:36:06.864Z,48.70
2022-12-08T15:38:36.690Z,52.97
2022-12-08T15:41:13.007Z,49.91
2022-12-08T15:43:44.657Z,47.12
2022-12-08T15:46:15.385Z,46.86
2022-12-08T15:48:45.743Z,47.74
2022-12-08T15:51:15.456Z,46.72
2022-12-08T15:53:45.157Z,46.92
2022-12-08T15:56:27.437Z,46.98
2022-12-08T15:58:59.838Z,46.21
2022-12-08T16:01:30.048Z,47.97
2022-12-08T16:09:45.242Z,45.68
2022-12-08T16:18:28.469Z,54.05
2022-12-08T16:21:31.509Z,50.44
2022-12-08T16:23:48.678Z,53.38
2022-12-08T16:27:21.803Z,46.51
2022-12-08T16:29:21.817Z,47.11
2022-12-08T16:31:51.795Z,47.83
2022-12-08T16:34:21.630Z,47.04
2022-12-08T16:36:53.527Z,49.23
2022-12-08T16:39:23.704Z,48.12
2022-12-08T16:42:56.365Z,48.44
2022-12-08T16:50:35.800Z,48.06
2022-12-08T16:53:12.191Z,47.76
2022-12-08T16:55:46.795Z,48.96
2022-12-08T16:58:17.145Z,49.22
2022-12-08T17:00:46.964Z,46.74
2022-12-08T17:03:18.455Z,44.90
2022-12-08T17:05:48.628Z,44.24
2022-12-08T17:08:18.381Z,45.23
2022-12-08T17:11:08.252Z,51.44
2022-12-08T17:13:40.752Z,44.19
2022-12-08T17:16:14.138Z,42.03
2022-12-08T17:18:44.135Z,41.99
2022-12-08T17:21:16.325Z,42.78
2022-12-08T17:23:46.655Z,41.56
2022-12-08T17:26:16.683Z,43.95
2022-12-08T17:29:01.954Z,42.43
2022-12-08T17:31:33.780Z,44.01
2022-12-08T17:34:05.412Z,43.83
2022-12-08T17:36:35.876Z,40.76
2022-12-08T17:39:07.036Z,44.60
2022-12-08T17:41:37.709Z,40.04
2022-12-08T17:44:17.513Z,39.66
2022-12-08T17:46:52.544Z,43.85
2022-12-08T17:49:26.334Z,40.63
2022-12-08T17:52:20.848Z,43.63
2022-12-08T17:54:51.409Z,43.89
2022-12-08T17:57:21.730Z,47.21
2022-12-08T17:59:51.513Z,39.73
2022-12-08T18:02:21.254Z,41.12
2022-12-08T18:04:51.356Z,42.59
2022-12-08T18:07:21.213Z,44.45
2022-12-08T18:09:52.703Z,47.50
2022-12-08T18:12:24.028Z,42.21
2022-12-08T18:14:54.081Z,42.21
2022-12-08T18:17:23.795Z,44.11
2022-12-08T18:19:53.913Z,47.01
2022-12-08T18:22:23.626Z,42.43
2022-12-08T18:24:53.327Z,44.25
2022-12-08T18:27:23.138Z,43.58
2022-12-08T18:29:52.907Z,46.07
2022-12-08T18:32:24.743Z,43.43
2022-12-08T18:34:54.896Z,43.52
2022-12-08T18:37:24.602Z,46.63
2022-12-08T18:39:54.402Z,44.22
2022-12-08T18:42:24.100Z,41.68
2022-12-08T18:44:58.187Z,43.50
2022-12-08T18:47:29.424Z,44.70
2022-12-08T18:50:00.106Z,42.07
2022-12-08T18:52:32.202Z,44.82
2022-12-08T18:55:07.548Z,43.72
2022-12-08T18:57:44.689Z,45.92
2022-12-08T19:00:17.928Z,45.71
2022-12-08T19:02:47.894Z,45.35
2022-12-08T19:05:18.001Z,46.67
2022-12-08T19:07:47.850Z,43.52
2022-12-08T19:10:18.561Z,44.99
2022-12-08T19:12:53.138Z,45.21
2022-12-08T19:15:22.845Z,47.07
2022-12-08T19:17:52.443Z,44.00
2022-12-08T19:20:23.452Z,43.46
2022-12-08T19:22:53.490Z,44.95
2022-12-08T19:25:23.300Z,44.41
2022-12-08T19:27:53.032Z,45.27
2022-12-08T19:30:22.760Z,45.33
2022-12-08T19:32:52.610Z,47.66
2022-12-08T19:35:22.368Z,47.33
2022-12-08T19:37:52.372Z,47.09
2022-12-08T19:40:40.276Z,46.66
2022-12-08T19:43:36.414Z,47.32
2022-12-08T19:46:07.232Z,49.64
2022-12-08T19:48:37.776Z,53.75
2022-12-08T19:51:07.923Z,48.30
2022-12-08T19:53:37.710Z,47.65
2022-12-08T19:56:07.482Z,49.94
2022-12-08T19:58:37.358Z,52.01
2022-12-08T20:01:07.202Z,48.40
2022-12-08T20:03:37.010Z,54.96
2022-12-08T20:06:06.840Z,54.24
2022-12-08T20:08:37.694Z,56.88
2022-12-08T20:11:07.526Z,55.10
2022-12-08T20:13:42.960Z,59.12
2022-12-08T20:16:14.128Z,60.69
2022-12-08T20:18:45.360Z,59.38
2022-12-08T20:21:15.406Z,62.28
2022-12-08T20:23:46.629Z,60.57
2022-12-08T20:26:17.469Z,59.11
2022-12-08T20:28:48.327Z,58.96
2022-12-08T20:31:29.700Z,59.30
2022-12-08T20:34:00.130Z,59.21
2022-12-08T20:36:30.086Z,60.21
2022-12-08T20:38:59.937Z,60.32
2022-12-08T20:41:32.666Z,62.10
2022-12-08T20:44:06.533Z,61.68
2022-12-08T20:46:36.735Z,63.52
2022-12-08T20:49:07.150Z,63.96
2022-12-08T20:51:37.023Z,63.42
2022-12-08T20:54:07.016Z,65.44
2022-12-08T20:56:36.813Z,64.71
2022-12-08T20:59:06.724Z,64.98
2022-12-08T21:01:36.648Z,65.79
2022-12-08T21:04:06.822Z,66.52
2022-12-08T21:06:36.944Z,66.87
2022-12-08T21:09:06.809Z,67.40
2022-12-08T21:11:36.933Z,66.73
2022-12-08T21:14:06.851Z,67.27
2022-12-08T21:16:37.010Z,68.51
2022-12-08T21:19:07.332Z,68.07
2022-12-08T21:21:37.189Z,68.36
2022-12-08T21:24:07.807Z,70.20
2022-12-08T21:26:37.735Z,68.86
2022-12-08T21:29:08.016Z,69.81
2022-12-08T21:31:38.405Z,70.25
2022-12-08T21:34:08.369Z,70.73
2022-12-08T21:36:38.460Z,72.70
2022-12-08T21:39:13.724Z,71.90
2022-12-08T21:42:02.569Z,71.70
2022-12-08T21:44:36.379Z,72.11
2022-12-08T21:47:07.433Z,71.78
2022-12-08T21:49:38.791Z,72.50
2022-12-08T21:52:08.912Z,72.27
2022-12-08T21:54:39.597Z,72.18
2022-12-08T21:57:09.371Z,72.20
2022-12-08T21:59:39.371Z,73.02
2022-12-08T22:02:12.773Z,72.09
2022-12-08T22:04:44.188Z,71.99
2022-12-08T22:07:14.388Z,72.78
2022-12-08T22:09:44.259Z,71.33
2022-12-08T22:12:14.232Z,72.17
2022-12-08T22:14:45.083Z,71.39
2022-12-08T22:17:15.568Z,70.42
2022-12-08T22:19:45.658Z,69.78
2022-12-08T22:22:15.500Z,70.09
2022-12-08T22:24:45.565Z,69.78
2022-12-08T22:27:15.391Z,70.77
2022-12-08T22:29:45.671Z,69.05
2022-12-08T22:32:15.490Z,70.45
2022-12-08T22:34:45.205Z,71.81
2022-12-08T22:37:15.114Z,72.32
2022-12-08T22:39:45.001Z,71.82
2022-12-08T22:42:15.830Z,73.31
2022-12-08T22:44:46.242Z,73.54
2022-12-08T22:47:16.226Z,73.94
2022-12-08T22:49:46.340Z,72.35
2022-12-08T22:52:16.260Z,72.78
2022-12-08T22:54:46.011Z,72.76
2022-12-08T22:57:16.629Z,73.14
2022-12-08T22:59:46.364Z,72.94
2022-12-08T23:02:16.117Z,73.16
2022-12-08T23:04:47.515Z,72.20
2022-12-08T23:07:17.867Z,72.34
2022-12-08T23:09:47.675Z,70.85
2022-12-08T23:12:19.740Z,70.75
2022-12-08T23:14:49.996Z,70.68
2022-12-08T23:17:20.759Z,70.91
2022-12-08T23:19:50.619Z,69.68
2022-12-08T23:22:20.393Z,69.32
2022-12-08T23:24:50.281Z,70.75
2022-12-08T23:27:20.045Z,69.87
2022-12-08T23:29:49.851Z,69.42
2022-12-08T23:32:19.812Z,72.11
2022-12-08T23:34:49.884Z,70.71
2022-12-08T23:37:20.086Z,71.65
2022-12-08T23:39:49.822Z,71.94
2022-12-08T23:42:19.573Z,74.41
2022-12-08T23:44:49.423Z,74.44
2022-12-08T23:47:19.397Z,75.71
2022-12-08T23:49:49.185Z,75.97
2022-12-08T23:52:19.221Z,76.65
2022-12-08T23:54:52.075Z,76.97
2022-12-08T23:57:22.872Z,77.16
2022-12-08T23:59:52.750Z,76.70
